Time;durP1;ratioP1;P1;durP2;ratioP2;P2;SDS_P1;SDS_P2;PMS_P1;PMS_P2;Temp;Humidity;BMP_temperature;BMP_pressure;BME280_temperature;BME280_humidity;BME280_pressure;Samples;Min_cycle;Max_cycle;Signal;HPM_P1;HPM_P2
2022/12/06 00:02:07;;;;;;;10.50;5.43;;;;;;;11.02;100.00;101917.41;5014634;28;20033;-56
2022/12/06 00:04:32;;;;;;;9.73;5.40;;;;;;;10.99;100.00;101918.56;5015764;28;20097;-51
2022/12/06 00:06:59;;;;;;;15.75;6.03;;;;;;;10.92;100.00;101908.72;5015004;28;20073;-53
2022/12/06 00:09:29;;;;;;;12.80;4.97;;;;;;;10.96;100.00;101910.88;5015507;28;20056;-52
2022/12/06 00:11:56;;;;;;;13.77;5.95;;;;;;;10.87;100.00;101906.56;5013164;28;20041;-55
2022/12/06 00:14:22;;;;;;;11.90;5.47;;;;;;;10.91;100.00;101907.91;5015586;28;20034;-53
2022/12/06 00:16:49;;;;;;;13.07;5.00;;;;;;;10.90;100.00;101904.38;5014566;28;20026;-53
2022/12/06 00:19:17;;;;;;;11.45;5.57;;;;;;;10.78;100.00;101907.56;5015218;28;20049;-55
2022/12/06 00:21:43;;;;;;;10.57;5.25;;;;;;;10.75;100.00;101909.59;5013259;28;20042;-54
2022/12/06 00:24:15;;;;;;;11.63;5.50;;;;;;;10.76;100.00;101905.09;5015238;28;20030;-52
2022/12/06 00:26:43;;;;;;;10.15;4.80;;;;;;;10.82;100.00;101915.09;5014068;28;20038;-56
2022/12/06 00:29:16;;;;;;;13.80;5.72;;;;;;;10.78;100.00;101912.94;4997891;28;20038;-54
2022/12/06 00:31:42;;;;;;;15.20;5.70;;;;;;;10.78;100.00;101910.25;5015338;28;20039;-54
2022/12/06 00:34:08;;;;;;;14.68;5.35;;;;;;;10.73;100.00;101910.78;5015504;28;20030;-50
2022/12/06 00:36:37;;;;;;;15.07;4.93;;;;;;;10.78;100.00;101912.94;5015496;28;20030;-53
2022/12/06 00:39:07;;;;;;;12.15;5.10;;;;;;;10.74;100.00;101913.28;5014697;28;20124;-54
2022/12/06 00:41:33;;;;;;;12.43;5.10;;;;;;;10.80;100.00;101911.75;5013377;28;20030;-54
2022/12/06 00:43:58;;;;;;;11.00;5.75;;;;;;;10.73;100.00;101911.59;5013295;28;20049;-53
2022/12/06 00:46:29;;;;;;;12.67;5.13;;;;;;;10.82;100.00;101915.09;5015274;28;20045;-52
2022/12/06 00:48:56;;;;;;;12.18;5.30;;;;;;;10.85;100.00;101913.94;5013561;28;20046;-53
2022/12/06 00:51:23;;;;;;;12.05;5.13;;;;;;;10.81;100.00;101909.91;5014998;28;20038;-54
2022/12/06 00:53:50;;;;;;;13.90;6.13;;;;;;;10.80;100.00;101922.47;5014291;28;20046;-55
2022/12/06 00:56:16;;;;;;;12.15;5.28;;;;;;;10.81;100.00;101924.13;5014591;28;20057;-52
2022/12/06 00:58:43;;;;;;;13.57;5.93;;;;;;;10.75;100.00;101916.81;5014931;28;20030;-50
2022/12/06 01:01:15;;;;;;;13.07;5.15;;;;;;;10.72;100.00;101917.97;5014569;28;20049;-49
2022/12/06 01:03:42;;;;;;;11.68;5.35;;;;;;;10.72;100.00;101919.78;5014554;28;20038;-55
2022/12/06 01:06:11;;;;;;;10.43;4.88;;;;;;;10.74;100.00;101920.47;5014652;28;20058;-52
2022/12/06 01:08:37;;;;;;;14.63;5.95;;;;;;;10.73;100.00;101916.94;5014421;28;20045;-52
2022/12/06 01:11:04;;;;;;;10.27;5.05;;;;;;;10.76;100.00;101916.59;5014919;28;20038;-52
2022/12/06 01:13:30;;;;;;;15.27;5.75;;;;;;;10.68;100.00;101911.28;5014635;28;20041;-53
2022/12/06 01:15:56;;;;;;;12.85;5.65;;;;;;;10.68;100.00;101913.09;5014476;28;20038;-51
2022/12/06 01:18:22;;;;;;;11.27;5.10;;;;;;;10.67;100.00;101909.63;5014550;28;20037;-50
2022/12/06 01:20:48;;;;;;;13.45;5.70;;;;;;;10.75;100.00;101914.13;4997466;28;20041;-55
2022/12/06 01:23:14;;;;;;;10.07;5.17;;;;;;;10.66;100.00;101917.78;5014543;28;20038;-55
2022/12/06 01:25:51;;;;;;;13.55;5.28;;;;;;;10.92;100.00;101916.75;5014223;28;20163;-54
2022/12/06 01:28:16;;;;;;;14.75;5.47;;;;;;;11.00;100.00;101909.53;5011895;28;20044;-54
2022/12/06 01:30:42;;;;;;;12.82;6.45;;;;;;;11.05;100.00;101912.50;5013855;28;20054;-51
2022/12/06 01:33:07;;;;;;;18.40;6.10;;;;;;;11.09;100.00;101914.88;5013615;28;20058;-51
2022/12/06 01:35:38;;;;;;;17.70;6.50;;;;;;;11.09;100.00;101905.00;5013883;28;20367;-58
2022/12/06 01:38:03;;;;;;;9.90;5.40;;;;;;;11.12;100.00;101914.53;5011701;28;20339;-55
2022/12/06 01:40:34;;;;;;;19.67;6.78;;;;;;;11.03;100.00;101914.53;5014069;28;20042;-54
2022/12/06 01:43:00;;;;;;;18.08;7.00;;;;;;;10.89;100.00;101917.94;5011805;28;20041;-54
2022/12/06 01:45:26;;;;;;;17.57;6.27;;;;;;;10.94;100.00;101920.06;5011191;28;20098;-51
2022/12/06 01:47:51;;;;;;;17.08;6.95;;;;;;;10.96;100.00;101915.41;5013961;28;20034;-54
2022/12/06 01:50:31;;;;;;;14.07;6.40;;;;;;;11.04;100.00;101910.03;5013515;28;20049;-53
2022/12/06 01:53:03;;;;;;;15.20;5.82;;;;;;;10.97;100.00;101907.19;5012725;28;20038;-55
2022/12/06 01:55:33;;;;;;;12.90;6.20;;;;;;;11.01;100.00;101913.06;5011905;28;20054;-52
2022/12/06 01:58:05;;;;;;;15.15;6.55;;;;;;;11.00;100.00;101908.72;5011064;28;20070;-55
2022/12/06 02:00:31;;;;;;;13.65;5.95;;;;;;;10.83;100.00;101908.75;5011998;28;20042;-55
2022/12/06 02:03:00;;;;;;;16.37;6.13;;;;;;;10.81;100.00;101907.22;5011190;28;20030;-56
2022/12/06 02:05:27;;;;;;;20.63;6.85;;;;;;;10.88;100.00;101908.25;5011726;28;20053;-54
2022/12/06 02:07:55;;;;;;;12.80;5.45;;;;;;;11.04;100.00;101913.53;5010737;28;20072;-55
2022/12/06 02:10:21;;;;;;;16.40;6.28;;;;;;;10.99;100.00;101909.72;5010377;28;20034;-55
2022/12/06 02:12:50;;;;;;;21.00;7.17;;;;;;;11.01;100.00;101907.69;5012007;28;20026;-55
2022/12/06 02:15:16;;;;;;;14.55;5.60;;;;;;;10.98;100.00;101913.41;5010780;28;20054;-53
2022/12/06 02:18:02;;;;;;;13.23;5.30;;;;;;;10.98;100.00;101902.69;5012849;28;20039;-52
2022/12/06 02:20:39;;;;;;;13.32;5.95;;;;;;;10.92;100.00;101908.72;5011107;28;20065;-54
2022/12/06 02:23:19;;;;;;;13.23;6.25;;;;;;;10.79;100.00;101902.06;5012112;28;20038;-54
2022/12/06 02:26:02;;;;;;;13.77;5.95;;;;;;;10.71;100.00;101897.56;5011693;28;20065;-52
2022/12/06 02:28:47;;;;;;;18.98;6.90;;;;;;;10.83;100.00;101899.88;5012140;28;20039;-51
2022/12/06 02:31:22;;;;;;;20.80;6.38;;;;;;;10.82;100.00;101895.53;4997292;28;20106;-55
2022/12/06 02:33:56;;;;;;;17.30;6.55;;;;;;;10.60;100.00;101897.91;4996469;28;20034;-54
2022/12/06 02:36:32;;;;;;;18.95;5.82;;;;;;;10.85;100.00;101893.34;4996656;28;20031;-53
2022/12/06 02:39:24;;;;;;;15.45;6.47;;;;;;;10.80;100.00;101893.03;4998116;28;20046;-56
2022/12/06 02:42:02;;;;;;;13.50;5.18;;;;;;;10.88;100.00;101889.50;4995823;28;20039;-55
2022/12/06 02:44:34;;;;;;;17.65;7.50;;;;;;;10.88;100.00;101886.81;4995756;28;20033;-54
2022/12/06 02:47:02;;;;;;;14.82;5.65;;;;;;;10.82;100.00;101888.34;4997860;28;20043;-54
2022/12/06 02:49:32;;;;;;;12.23;5.63;;;;;;;10.81;100.00;101889.34;5002550;28;20077;-55
2022/12/06 02:51:58;;;;;;;20.00;6.10;;;;;;;10.76;100.00;101883.69;5003867;28;20029;-51
2022/12/06 02:54:25;;;;;;;15.90;6.03;;;;;;;10.85;100.00;101885.31;4997870;28;20039;-53
2022/12/06 02:56:51;;;;;;;16.42;5.40;;;;;;;10.96;100.00;101891.31;4996904;28;20037;-52
2022/12/06 02:59:17;;;;;;;18.00;5.97;;;;;;;10.93;100.00;101876.44;4998381;28;20046;-55
2022/12/06 03:01:51;;;;;;;23.20;5.63;;;;;;;11.00;100.00;101879.25;4996785;28;20038;-55
2022/12/06 03:04:45;;;;;;;14.65;5.78;;;;;;;11.00;100.00;101885.44;4984235;28;20045;-55
2022/12/06 03:07:30;;;;;;;21.63;5.95;;;;;;;11.25;100.00;101884.53;4998454;28;20074;-54
2022/12/06 03:10:29;;;;;;;14.15;6.07;;;;;;;11.01;100.00;101881.75;4995568;28;20047;-53
2022/12/06 03:13:15;;;;;;;11.38;5.13;;;;;;;10.99;100.00;101880.28;4986859;28;20114;-52
2022/12/06 03:15:58;;;;;;;13.48;5.53;;;;;;;10.96;100.00;101884.13;4998481;28;20033;-53
2022/12/06 03:18:35;;;;;;;18.75;6.28;;;;;;;10.87;100.00;101883.31;5001094;28;20042;-54
2022/12/06 03:21:07;;;;;;;16.27;5.03;;;;;;;10.90;100.00;101892.84;5000564;28;20041;-54
2022/12/06 03:23:41;;;;;;;17.52;5.43;;;;;;;10.85;100.00;101895.22;5001165;28;20065;-53
2022/12/06 03:26:11;;;;;;;8.80;4.70;;;;;;;10.85;100.00;101897.88;5002160;28;20030;-52
2022/12/06 03:28:38;;;;;;;14.85;5.82;;;;;;;10.81;100.00;101891.19;5002590;28;20061;-55
2022/12/06 03:31:10;;;;;;;13.18;4.95;;;;;;;10.78;100.00;101894.19;5020755;28;20041;-55
2022/12/06 03:33:41;;;;;;;12.10;5.03;;;;;;;10.76;100.00;101886.34;5018989;28;20102;-55
2022/12/06 03:36:08;;;;;;;10.02;4.78;;;;;;;10.70;100.00;101887.03;5017546;28;20098;-55
2022/12/06 03:38:48;;;;;;;16.27;5.53;;;;;;;10.63;100.00;101878.88;5023528;28;20049;-54
2022/12/06 03:41:18;;;;;;;14.70;5.68;;;;;;;10.46;100.00;101881.56;5020995;28;20209;-52
2022/12/06 03:43:44;;;;;;;20.83;6.20;;;;;;;10.57;100.00;101884.88;5017805;28;20049;-55
2022/12/06 03:46:16;;;;;;;11.38;5.05;;;;;;;10.37;100.00;101885.19;5018655;28;20089;-55
2022/12/06 03:48:53;;;;;;;11.50;4.63;;;;;;;10.42;100.00;101888.25;5017572;28;20049;-52
2022/12/06 03:51:27;;;;;;;20.33;5.43;;;;;;;10.46;100.00;101894.06;5020135;28;20080;-53
2022/12/06 03:53:55;;;;;;;20.73;5.40;;;;;;;10.48;100.00;101892.06;5021809;28;20037;-53
2022/12/06 03:56:21;;;;;;;14.48;4.75;;;;;;;10.37;100.00;101893.22;5022222;28;20041;-52
2022/12/06 03:58:47;;;;;;;;;;;;;;;10.46;100.00;101888.72;5021827;28;20038;-50
2022/12/06 04:01:12;;;;;;;14.73;4.53;;;;;;;10.56;100.00;101894.75;5024237;28;19936;-55
2022/12/06 04:03:38;;;;;;;15.80;5.25;;;;;;;10.50;100.00;101889.22;5022687;28;20045;-54
2022/12/06 04:06:05;;;;;;;13.27;5.32;;;;;;;10.59;100.00;101882.84;5021600;28;20049;-55
2022/12/06 04:08:31;;;;;;;10.55;4.78;;;;;;;10.47;100.00;101885.91;5018323;28;20030;-53
2022/12/06 04:10:57;;;;;;;16.35;4.68;;;;;;;10.54;100.00;101893.22;5017558;28;20122;-51
2022/12/06 04:13:23;;;;;;;12.20;4.85;;;;;;;10.47;100.00;101885.91;5019789;28;20042;-52
2022/12/06 04:15:49;;;;;;;17.02;4.70;;;;;;;10.47;100.00;101885.91;5020692;28;20068;-53
2022/12/06 04:18:15;;;;;;;17.67;5.77;;;;;;;10.50;100.00;101889.22;5020188;28;20030;-52
2022/12/06 04:23:40;;;;;;;9.35;3.90;;;;;;;10.42;100.00;101882.91;5022787;28;20064;-54
2022/12/06 04:26:07;;;;;;;11.85;4.18;;;;;;;10.45;100.00;101885.22;5019846;28;20034;-53
2022/12/06 04:39:31;;;;;;;13.88;4.30;;;;;;;10.45;100.00;101879.03;5011486;28;20111;-54
2022/12/06 04:44:42;;;;;;;8.07;3.47;;;;;;;10.32;100.00;101884.88;5012090;28;20106;-55
2022/12/06 04:47:08;;;;;;;10.23;4.32;;;;;;;10.27;100.00;101887.22;5013624;28;20083;-51
2022/12/06 04:49:36;;;;;;;10.68;3.72;;;;;;;10.41;100.00;101875.03;5013702;28;20080;-52
2022/12/06 04:52:02;;;;;;;9.95;3.97;;;;;;;10.41;100.00;101873.22;5013562;28;20034;-50
2022/12/06 04:54:29;;;;;;;12.32;4.10;;;;;;;10.41;100.00;101877.72;5013586;28;20041;-55
2022/12/06 04:56:56;;;;;;;9.35;4.55;;;;;;;10.37;100.00;101874.50;5014047;28;20058;-55
2022/12/06 04:59:22;;;;;;;13.60;5.05;;;;;;;10.45;100.00;101874.53;5011131;28;20037;-54
2022/12/06 05:01:48;;;;;;;11.40;4.07;;;;;;;10.40;100.00;101870.66;5014009;28;20037;-52
2022/12/06 05:04:13;;;;;;;13.03;4.07;;;;;;;10.39;100.00;101882.38;5013571;28;20038;-53
2022/12/06 05:06:39;;;;;;;5.37;2.73;;;;;;;10.36;100.00;101882.69;5013727;28;20352;-58
2022/12/06 05:09:04;;;;;;;12.37;3.67;;;;;;;10.24;100.00;101884.88;5012892;28;20034;-54
2022/12/06 05:11:30;;;;;;;13.10;3.60;;;;;;;10.29;100.00;101872.69;5013257;28;20089;-52
2022/12/06 05:13:55;;;;;;;22.02;5.53;;;;;;;10.24;100.00;101871.50;5013612;28;20038;-51
2022/12/06 05:16:21;;;;;;;12.43;3.90;;;;;;;10.29;100.00;101869.16;5013451;28;20055;-54
2022/12/06 05:18:46;;;;;;;10.17;4.40;;;;;;;10.25;100.00;101874.00;5013254;28;20073;-57
2022/12/06 05:21:15;;;;;;;12.23;3.97;;;;;;;10.22;100.00;101871.66;5013222;28;20022;-54
2022/12/06 05:23:41;;;;;;;15.45;3.95;;;;;;;10.27;100.00;101873.84;5013416;28;20041;-55
2022/12/06 05:26:10;;;;;;;14.68;4.43;;;;;;;10.25;100.00;101865.97;5012934;28;20039;-55
2022/12/06 05:28:35;;;;;;;11.43;4.20;;;;;;;10.17;100.00;101874.88;5013353;28;20041;-56
2022/12/06 05:31:01;;;;;;;13.65;3.92;;;;;;;10.29;100.00;101867.34;4996876;28;20038;-55
2022/12/06 05:33:27;;;;;;;13.27;4.50;;;;;;;10.35;100.00;101859.63;4995647;28;20042;-56
2022/12/06 05:35:53;;;;;;;11.32;3.50;;;;;;;10.18;100.00;101871.19;5012888;28;20280;-50
2022/12/06 05:38:19;;;;;;;6.63;3.50;;;;;;;10.34;100.00;101866.81;5013426;28;20066;-54
2022/12/06 05:40:46;;;;;;;9.35;3.47;;;;;;;10.39;100.00;101866.31;5012626;28;20034;-51
2022/12/06 05:43:11;;;;;;;10.60;3.13;;;;;;;10.38;100.00;101876.19;5013092;28;20042;-53
2022/12/06 05:45:38;;;;;;;8.02;3.70;;;;;;;10.39;100.00;101867.16;5012819;28;20065;-53
2022/12/06 05:48:04;;;;;;;15.10;3.97;;;;;;;10.12;100.00;101877.19;5012380;28;20034;-54
2022/12/06 05:50:30;;;;;;;7.18;3.38;;;;;;;10.22;100.00;101879.69;5012593;28;20045;-54
2022/12/06 05:52:58;;;;;;;15.45;4.03;;;;;;;10.08;100.00;101873.19;5012643;28;20026;-54
2022/12/06 05:55:24;;;;;;;10.75;3.50;;;;;;;10.10;100.00;101876.50;5011448;28;20038;-54
2022/12/06 05:57:50;;;;;;;15.80;3.67;;;;;;;10.16;100.00;101883.88;5012400;28;20026;-55
2022/12/06 06:00:17;;;;;;;11.50;3.80;;;;;;;10.37;100.00;101874.50;5013275;28;20041;-52
2022/12/06 06:02:42;;;;;;;9.18;3.58;;;;;;;10.29;100.00;101877.19;5012255;28;20046;-52
2022/12/06 06:05:08;;;;;;;8.43;3.20;;;;;;;10.38;100.00;101876.19;5011046;28;20038;-50
2022/12/06 06:07:34;;;;;;;15.63;3.88;;;;;;;10.16;100.00;101875.88;5012500;28;20201;-50
2022/12/06 06:10:00;;;;;;;7.60;2.97;;;;;;;10.23;100.00;101891.22;5012414;28;20071;-52
2022/12/06 06:12:26;;;;;;;6.07;2.63;;;;;;;10.28;100.00;101883.53;5012199;28;20268;-53
2022/12/06 06:14:52;;;;;;;11.57;4.23;;;;;;;10.22;100.00;101892.22;5011959;28;20053;-50
2022/12/06 06:17:17;;;;;;;9.20;3.53;;;;;;;10.28;100.00;101896.91;5010622;28;20057;-53
2022/12/06 06:19:43;;;;;;;12.77;3.33;;;;;;;10.22;100.00;101893.06;5012102;28;20042;-52
2022/12/06 06:22:09;;;;;;;7.22;3.00;;;;;;;10.19;100.00;101899.59;5013074;28;20030;-54
2022/12/06 06:24:36;;;;;;;7.87;3.10;;;;;;;10.43;100.00;101887.25;5012735;28;20041;-50
2022/12/06 06:27:02;;;;;;;7.25;2.90;;;;;;;10.26;100.00;101888.22;5012594;28;20026;-55
2022/12/06 06:29:28;;;;;;;10.43;3.45;;;;;;;10.27;100.00;101890.75;5007472;28;20118;-52
2022/12/06 06:31:53;;;;;;;7.75;3.60;;;;;;;10.35;100.00;101900.56;4995601;28;20035;-51
2022/12/06 06:34:19;;;;;;;8.70;4.00;;;;;;;10.16;100.00;101891.91;4995124;28;20031;-52
2022/12/06 06:36:44;;;;;;;7.57;3.13;;;;;;;10.04;100.00;101893.22;4995580;28;20043;-54
2022/12/06 06:39:10;;;;;;;9.57;2.83;;;;;;;10.16;100.00;101894.56;4999175;28;20094;-55
2022/12/06 06:41:36;;;;;;;8.48;3.92;;;;;;;10.21;100.00;101891.38;4996822;28;20034;-54
2022/12/06 06:44:02;;;;;;;14.30;3.40;;;;;;;10.29;100.00;101893.22;4996058;28;20042;-50
2022/12/06 06:46:27;;;;;;;7.17;3.53;;;;;;;10.01;100.00;101890.88;4994822;28;20319;-50
2022/12/06 06:48:53;;;;;;;9.87;3.40;;;;;;;10.29;100.00;101886.06;4995587;28;20276;-50
2022/12/06 06:51:18;;;;;;;7.87;2.90;;;;;;;10.28;100.00;101891.56;4995998;28;20031;-56
2022/12/06 06:53:44;;;;;;;10.77;3.25;;;;;;;10.29;100.00;101891.41;4998346;28;20373;-53
2022/12/06 06:56:10;;;;;;;7.53;2.80;;;;;;;10.08;100.00;101891.06;4997831;28;20034;-54
2022/12/06 06:58:36;;;;;;;7.70;3.33;;;;;;;10.18;100.00;101884.56;5000870;28;20038;-53
2022/12/06 07:01:04;;;;;;;6.80;2.75;;;;;;;10.19;100.00;101888.03;4996986;28;20057;-56
2022/12/06 07:03:30;;;;;;;11.13;3.65;;;;;;;10.18;100.00;101889.91;5000384;28;20050;-57
2022/12/06 07:06:02;;;;;;;14.95;3.58;;;;;;;10.22;100.00;101881.53;5004720;28;20034;-53
2022/12/06 07:08:29;;;;;;;11.18;3.20;;;;;;;10.24;100.00;101884.88;5000173;28;20095;-57
2022/12/06 07:10:55;;;;;;;4.67;2.43;;;;;;;10.12;100.00;101884.38;5000229;28;20050;-52
2022/12/06 07:13:23;;;;;;;8.32;3.70;;;;;;;10.13;100.00;101883.38;5004175;28;20276;-54
2022/12/06 07:15:48;;;;;;;9.30;3.33;;;;;;;10.20;100.00;101879.03;4999487;28;20034;-53
2022/12/06 07:18:16;;;;;;;8.57;2.70;;;;;;;10.22;100.00;101870.84;4999216;28;20185;-55
2022/12/06 07:20:42;;;;;;;8.13;3.67;;;;;;;10.24;100.00;101866.16;4991596;28;20041;-55
2022/12/06 07:23:13;;;;;;;8.00;3.40;;;;;;;10.21;100.00;101880.69;5000336;28;20054;-56
2022/12/06 07:25:38;;;;;;;11.75;3.47;;;;;;;10.10;100.00;101879.19;4976968;28;20058;-56
2022/12/06 07:28:04;;;;;;;9.43;4.20;;;;;;;10.17;100.00;101872.19;4995715;28;20042;-53
2022/12/06 07:30:31;;;;;;;8.60;3.53;;;;;;;10.11;100.00;101875.50;5010069;28;20118;-56
2022/12/06 07:32:57;;;;;;;6.95;3.28;;;;;;;10.07;100.00;101876.84;5012949;28;20054;-50
2022/12/06 07:35:23;;;;;;;9.57;3.83;;;;;;;9.98;100.00;101868.00;5013134;28;20030;-53
2022/12/06 07:37:49;;;;;;;7.57;3.58;;;;;;;9.81;100.00;101871.66;4994865;28;20050;-55
2022/12/06 07:40:16;;;;;;;7.97;3.07;;;;;;;9.87;100.00;101869.16;5013535;28;20030;-56
2022/12/06 07:45:26;;;;;;;8.57;3.20;;;;;;;9.86;100.00;101872.81;5012447;28;20034;-56
2022/12/06 07:47:52;;;;;;;8.77;3.30;;;;;;;9.88;100.00;101873.50;5012125;28;20093;-51
2022/12/06 07:50:21;;;;;;;10.13;3.20;;;;;;;9.81;100.00;101874.34;5011003;28;20111;-54
2022/12/06 07:52:48;;;;;;;9.05;3.17;;;;;;;9.72;100.00;101881.50;4995894;28;20046;-57
2022/12/06 07:55:15;;;;;;;7.88;3.65;;;;;;;9.40;100.00;101877.72;5012419;28;20034;-55
2022/12/06 07:57:41;;;;;;;7.00;3.47;;;;;;;9.59;100.00;101876.63;5015093;28;20026;-56
2022/12/06 08:00:09;;;;;;;9.32;3.92;;;;;;;9.57;100.00;101870.59;5015087;28;20038;-54
2022/12/06 08:02:38;;;;;;;12.57;4.47;;;;;;;9.21;100.00;101881.50;5015170;28;20057;-55
2022/12/06 08:05:04;;;;;;;8.30;4.38;;;;;;;9.40;100.00;101888.41;5013895;28;20051;-55
2022/12/06 08:07:30;;;;;;;15.57;4.70;;;;;;;9.36;100.00;101892.41;5015360;28;20034;-55
2022/12/06 08:09:55;;;;;;;13.43;4.15;;;;;;;9.29;100.00;101890.38;5013427;28;20073;-55
2022/12/06 08:12:20;;;;;;;10.50;3.90;;;;;;;9.18;100.00;101885.31;5015184;28;20034;-54
2022/12/06 08:14:47;;;;;;;7.67;3.93;;;;;;;9.16;100.00;101889.97;5012937;28;20066;-54
2022/12/06 08:17:13;;;;;;;10.93;4.13;;;;;;;9.02;100.00;101886.94;5015238;28;20034;-55
2022/12/06 08:19:38;;;;;;;11.63;4.60;;;;;;;9.08;100.00;101893.44;5014619;28;20060;-53
2022/12/06 08:22:04;;;;;;;10.27;6.70;;;;;;;9.07;100.00;101890.94;5014670;28;20084;-54
2022/12/06 08:24:29;;;;;;;9.20;4.03;;;;;;;9.06;100.00;101894.63;5013264;28;20054;-55
2022/12/06 08:26:55;;;;;;;23.63;7.67;;;;;;;8.84;100.00;101904.84;4996443;28;20042;-53
2022/12/06 08:29:20;;;;;;;9.20;2.97;;;;;;;8.83;100.00;101897.84;5014306;28;20050;-54
2022/12/06 08:31:46;;;;;;;15.48;4.32;;;;;;;8.76;100.00;101902.94;5014114;28;20062;-54
2022/12/06 08:34:14;;;;;;;19.23;4.93;;;;;;;8.86;100.00;101908.19;5013611;28;20035;-55
2022/12/06 08:36:40;;;;;;;12.90;4.35;;;;;;;8.80;100.00;101898.16;5013819;28;20102;-54
2022/12/06 08:39:07;;;;;;;12.02;4.85;;;;;;;8.99;100.00;101897.91;5013916;28;20034;-53
2022/12/06 08:44:18;;;;;;;9.05;3.83;;;;;;;9.04;100.00;101895.63;5012957;28;20178;-53
2022/12/06 08:46:44;;;;;;;8.23;4.13;;;;;;;9.04;100.00;101894.75;5013173;28;20489;-53
2022/12/06 08:49:11;;;;;;;10.32;3.60;;;;;;;9.10;100.00;101895.97;5013490;28;20118;-54
2022/12/06 08:51:37;;;;;;;8.43;3.90;;;;;;;9.06;100.00;101897.28;5013066;28;20043;-54
2022/12/06 08:54:04;;;;;;;12.55;3.92;;;;;;;9.11;100.00;101905.66;5013860;28;20030;-51
2022/12/06 08:56:30;;;;;;;8.02;3.95;;;;;;;9.09;100.00;101897.78;5012451;28;20027;-55
2022/12/06 08:58:56;;;;;;;11.97;4.00;;;;;;;9.25;100.00;101913.06;5012188;28;20057;-54
2022/12/06 09:01:30;;;;;;;7.22;3.85;;;;;;;9.25;100.00;101902.38;5010915;28;20275;-51
2022/12/06 09:03:57;;;;;;;18.80;5.15;;;;;;;9.26;100.00;101909.41;5013463;28;20038;-51
2022/12/06 09:06:23;;;;;;;9.13;4.25;;;;;;;9.30;100.00;101908.06;5013623;28;20049;-52
2022/12/06 09:08:49;;;;;;;11.70;4.45;;;;;;;9.17;100.00;101907.66;5013376;28;20038;-51
2022/12/06 09:11:16;;;;;;;10.90;4.75;;;;;;;9.11;100.00;101905.66;4996785;28;20045;-55
2022/12/06 09:13:42;;;;;;;10.75;4.63;;;;;;;9.34;100.00;101913.91;5012854;28;20057;-53
2022/12/06 09:16:09;;;;;;;;;;;;;;;9.38;100.00;101907.28;5012339;28;20030;-52
2022/12/06 09:18:35;;;;;;;9.52;3.65;;;;;;;9.54;100.00;101910.97;5010903;28;19917;-55
2022/12/06 09:21:06;;;;;;;11.80;3.78;;;;;;;9.52;100.00;101911.16;5013089;28;20045;-54
2022/12/06 09:23:33;;;;;;;12.70;4.05;;;;;;;10.69;100.00;101912.94;5011361;28;20038;-57
2022/12/06 09:25:58;;;;;;;14.73;5.57;;;;;;;12.21;100.00;101912.91;5012901;28;20068;-53
2022/12/06 09:28:24;;;;;;;13.20;3.95;;;;;;;13.83;100.00;101916.84;5011891;28;20038;-54
2022/12/06 09:30:50;;;;;;;9.97;3.37;;;;;;;14.95;100.00;101921.72;5012973;28;20078;-50
2022/12/06 09:33:15;;;;;;;7.93;3.60;;;;;;;15.46;100.00;101930.47;4996829;28;20280;-54
2022/12/06 09:35:40;;;;;;;8.67;2.83;;;;;;;15.95;100.00;101938.53;5013898;28;20030;-53
2022/12/06 09:38:06;;;;;;;10.13;5.03;;;;;;;16.89;100.00;101942.03;5013735;28;20155;-57
2022/12/06 09:40:37;;;;;;;6.72;2.75;;;;;;;17.53;100.00;101938.78;5013755;28;20030;-53
2022/12/06 09:43:11;;;;;;;5.57;2.77;;;;;;;18.04;95.39;101949.75;5011700;28;20034;-55
2022/12/06 09:45:42;;;;;;;10.00;2.90;;;;;;;18.51;90.94;101945.84;5013159;28;20280;-54
2022/12/06 09:48:44;;;;;;;3.57;2.10;;;;;;;18.46;90.74;101947.34;5013181;28;20088;-53
2022/12/06 09:51:31;;;;;;;9.67;3.00;;;;;;;18.99;85.76;101945.19;5011000;28;20026;-55
2022/12/06 09:54:06;;;;;;;9.13;2.73;;;;;;;19.22;82.60;101951.84;5011579;28;20039;-54
2022/12/06 09:56:45;;;;;;;7.87;2.43;;;;;;;19.85;78.93;101944.34;5012609;28;20062;-52
2022/12/06 09:59:36;;;;;;;5.83;2.73;;;;;;;20.14;74.93;101938.28;5012927;28;20072;-52
2022/12/06 10:02:20;;;;;;;7.33;2.47;;;;;;;20.46;72.90;101940.72;5012729;28;20026;-56
2022/12/06 10:04:57;;;;;;;4.23;2.17;;;;;;;20.74;71.10;101942.69;5011626;28;20050;-53
2022/12/06 10:07:32;;;;;;;3.50;2.10;;;;;;;21.04;68.61;101943.66;5012355;28;20050;-53
2022/12/06 10:10:46;;;;;;;4.53;2.60;;;;;;;21.19;71.74;101937.69;5010657;28;20038;-54
2022/12/06 10:13:38;;;;;;;7.23;2.07;;;;;;;21.06;66.68;101939.63;4943051;28;20140;-56
2022/12/06 10:16:26;;;;;;;5.27;2.17;;;;;;;21.67;68.89;101934.84;5010944;28;20034;-53
2022/12/06 10:19:14;;;;;;;5.83;2.43;;;;;;;21.74;63.84;101944.53;5012138;28;20042;-53
2022/12/06 10:21:42;;;;;;;5.90;2.10;;;;;;;22.10;62.70;101933.44;5011066;28;20038;-54
2022/12/06 10:24:26;;;;;;;6.00;2.67;;;;;;;22.05;61.67;101938.78;5011292;28;20041;-52
2022/12/06 10:26:54;;;;;;;5.23;2.30;;;;;;;22.24;61.02;101930.38;5010187;28;20562;-57
2022/12/06 10:29:21;;;;;;;5.40;2.83;;;;;;;22.65;58.87;101928.31;5012766;28;20089;-53
2022/12/06 10:32:03;;;;;;;4.30;2.30;;;;;;;23.20;59.37;101929.31;5012503;28;20034;-55
2022/12/06 10:34:44;;;;;;;6.73;2.80;;;;;;;23.68;55.78;101925.19;5013133;28;20053;-55
2022/12/06 10:37:29;;;;;;;5.40;1.83;;;;;;;23.58;53.72;101931.38;5011903;28;20073;-54
2022/12/06 10:40:03;;;;;;;3.10;1.53;;;;;;;23.38;53.88;101934.72;5012984;28;20042;-55
2022/12/06 10:43:03;;;;;;;3.97;1.80;;;;;;;22.12;57.30;101922.28;5012160;28;20105;-56
2022/12/06 10:48:40;;;;;;;8.43;2.50;;;;;;;22.97;56.06;101922.19;5011955;28;20042;-56
2022/12/06 10:51:11;;;;;;;7.70;1.90;;;;;;;22.13;57.46;101916.59;5011690;28;20046;-55
2022/12/06 10:53:49;;;;;;;5.60;1.93;;;;;;;22.04;58.49;101913.47;5011791;28;20038;-56
2022/12/06 10:56:36;;;;;;;5.37;1.23;;;;;;;22.75;53.92;101920.28;5009277;28;20026;-54
2022/12/06 10:59:22;;;;;;;4.83;1.90;;;;;;;22.53;55.34;101922.13;5010012;28;20039;-58
2022/12/06 11:01:50;;;;;;;6.72;1.92;;;;;;;23.20;56.79;101915.66;5011392;28;20098;-55
2022/12/06 11:04:23;;;;;;;3.30;1.97;;;;;;;24.04;51.29;101917.38;5011893;28;20058;-54
2022/12/06 11:06:52;;;;;;;7.07;2.40;;;;;;;23.40;51.12;101919.72;5011398;28;20026;-57
2022/12/06 11:09:41;;;;;;;9.37;3.30;;;;;;;22.86;51.29;101914.97;5011381;28;20045;-57
2022/12/06 11:12:29;;;;;;;6.73;2.80;;;;;;;24.22;50.17;101907.09;5010170;28;20037;-55
2022/12/06 11:15:11;;;;;;;6.30;2.60;;;;;;;24.57;47.74;101911.16;5007496;28;20038;-53
2022/12/06 11:17:42;;;;;;;6.77;2.00;;;;;;;24.51;48.28;101914.97;5010306;28;20026;-51
2022/12/06 11:20:13;;;;;;;6.50;1.63;;;;;;;23.42;50.58;101916.75;5011232;28;20090;-53
2022/12/06 11:22:46;;;;;;;4.93;1.70;;;;;;;23.53;48.87;101901.31;5010537;28;20049;-53
2022/12/06 11:25:33;;;;;;;5.47;1.97;;;;;;;22.83;48.78;101902.66;5012579;28;20038;-53
2022/12/06 11:28:20;;;;;;;4.30;1.60;;;;;;;22.14;50.42;101912.78;5010598;28;20042;-56
2022/12/06 11:30:51;;;;;;;3.53;1.50;;;;;;;22.04;51.52;101899.00;4993145;28;20062;-51
2022/12/06 11:33:24;;;;;;;5.03;1.53;;;;;;;21.55;51.57;101897.59;4995632;28;20106;-54
2022/12/06 11:35:49;;;;;;;9.40;1.90;;;;;;;20.75;54.67;101897.34;4990646;28;20109;-55
2022/12/06 11:38:15;;;;;;;7.10;2.17;;;;;;;19.19;62.60;101890.75;4993444;28;20053;-56
2022/12/06 11:40:44;;;;;;;4.57;1.80;;;;;;;18.90;62.20;101885.00;4994851;28;20039;-53
2022/12/06 11:43:17;;;;;;;6.07;1.87;;;;;;;18.52;66.92;101880.59;4993912;28;20141;-52
2022/12/06 11:45:44;;;;;;;6.50;2.40;;;;;;;18.10;70.27;101878.50;4992417;28;20054;-51
2022/12/06 11:48:15;;;;;;;6.93;2.13;;;;;;;17.79;71.24;101869.34;4994706;28;20058;-51
2022/12/06 11:50:41;;;;;;;6.33;2.00;;;;;;;17.40;73.18;101873.94;4993241;28;20073;-56
2022/12/06 11:53:24;;;;;;;6.90;1.87;;;;;;;16.66;75.01;101875.00;4994489;28;20107;-56
2022/12/06 11:55:54;;;;;;;8.47;1.97;;;;;;;16.32;82.01;101864.25;4997375;28;20049;-54